Time;durP1;ratioP1;P1;durP2;ratioP2;P2;SDS_P1;SDS_P2;PMS_P1;PMS_P2;Temp;Humidity;BMP_temperature;BMP_pressure;BME280_temperature;BME280_humidity;BME280_pressure;Samples;Min_cycle;Max_cycle;Signal;HPM_P1;HPM_P2
2021/07/15 00:02:18;;;;;;;1.17;1.00;;;;;;;19.12;56.91;98989.09;5054702;28;20284;-87
2021/07/15 00:04:45;;;;;;;0.90;0.90;;;;;;;19.24;56.80;99003.06;5022615;28;20229;-87
2021/07/15 00:07:14;;;;;;;0.83;0.83;;;;;;;19.19;57.11;99005.84;5055268;28;20320;-90
2021/07/15 00:09:42;;;;;;;0.80;0.80;;;;;;;19.19;57.37;98997.69;5070429;28;20235;-89
2021/07/15 00:12:12;;;;;;;0.90;0.90;;;;;;;19.22;57.15;98994.41;5054775;28;20249;-89
2021/07/15 00:14:39;;;;;;;1.23;1.07;;;;;;;19.15;57.42;98997.47;5071796;28;20629;-87
2021/07/15 00:17:06;;;;;;;1.13;1.03;;;;;;;19.37;57.09;98996.91;5054899;28;20293;-86
2021/07/15 00:19:33;;;;;;;1.00;1.00;;;;;;;19.28;57.17;98995.94;5038415;28;20310;-88
2021/07/15 00:22:00;;;;;;;0.90;0.90;;;;;;;19.23;57.38;98998.72;5038404;28;20314;-89
2021/07/15 00:24:28;;;;;;;1.03;1.03;;;;;;;19.16;57.61;98987.41;5038134;28;20615;-89
2021/07/15 00:26:56;;;;;;;0.90;0.90;;;;;;;19.22;57.40;99005.28;5038604;28;20650;-89
2021/07/15 00:29:23;;;;;;;1.30;1.20;;;;;;;19.19;57.65;99008.53;5038768;28;20645;-88
2021/07/15 00:31:50;;;;;;;1.63;1.30;;;;;;;19.24;57.35;99011.19;5054482;28;20232;-89
2021/07/15 00:34:18;;;;;;;1.20;1.10;;;;;;;19.20;57.70;99007.47;5037648;28;20687;-87
2021/07/15 00:36:44;;;;;;;1.13;1.10;;;;;;;19.12;58.37;99003.50;5038079;28;20308;-87
2021/07/15 00:39:11;;;;;;;1.43;1.13;;;;;;;19.09;58.12;99005.94;5071276;28;20226;-88
2021/07/15 00:41:38;;;;;;;1.20;1.20;;;;;;;19.21;57.79;99018.03;5037608;28;20232;-87
2021/07/15 00:44:05;;;;;;;1.37;1.27;;;;;;;19.33;57.38;99020.31;5037663;28;20240;-87
2021/07/15 00:46:32;;;;;;;1.37;1.17;;;;;;;19.33;57.00;99012.97;5037864;28;20222;-89
2021/07/15 00:48:59;;;;;;;2.17;1.20;;;;;;;19.42;56.84;99023.19;5037455;28;20232;-89
2021/07/15 00:51:29;;;;;;;1.20;1.10;;;;;;;19.27;57.49;99016.06;5037920;28;20320;-88
2021/07/15 00:53:58;;;;;;;1.50;1.37;;;;;;;19.26;57.15;99009.00;5054075;28;20233;-88
2021/07/15 00:56:26;;;;;;;1.63;1.10;;;;;;;19.35;56.91;99029.00;5036845;28;20322;-89
2021/07/15 00:58:53;;;;;;;2.60;1.30;;;;;;;19.24;57.48;99028.31;5037820;28;20232;-89
2021/07/15 01:01:20;;;;;;;2.20;1.30;;;;;;;19.18;57.46;99021.31;5070302;28;20535;-87
2021/07/15 01:03:49;;;;;;;1.40;1.30;;;;;;;19.01;58.17;99009.31;5021110;28;20242;-87
2021/07/15 01:06:17;;;;;;;1.00;1.00;;;;;;;19.15;57.83;99024.63;5053782;28;20613;-86
2021/07/15 01:08:44;;;;;;;1.13;1.10;;;;;;;19.12;57.51;99021.69;5037937;28;20226;-87
2021/07/15 01:11:21;;;;;;;1.20;1.10;;;;;;;19.07;57.73;99024.44;5021159;28;20282;-88
2021/07/15 01:14:01;;;;;;;1.30;1.20;;;;;;;19.05;57.97;99024.72;5037680;28;20222;-89
2021/07/15 01:16:42;;;;;;;1.77;1.27;;;;;;;18.99;57.82;99028.59;5053782;28;20247;-88
2021/07/15 01:19:28;;;;;;;1.47;1.20;;;;;;;18.96;58.13;99031.09;5037397;28;20222;-88
2021/07/15 01:22:05;;;;;;;1.43;1.33;;;;;;;19.04;57.61;99027.72;5053508;28;20230;-89
2021/07/15 01:25:01;;;;;;;1.60;1.03;;;;;;;19.04;57.27;99023.09;5037214;28;20543;-87
2021/07/15 01:27:27;;;;;;;1.30;1.20;;;;;;;18.92;57.63;99034.38;5037581;28;20242;-89
2021/07/15 01:30:07;;;;;;;1.77;1.17;;;;;;;18.91;57.74;99034.66;5054835;28;20511;-89
2021/07/15 01:33:15;;;;;;;1.33;1.23;;;;;;;18.89;57.59;99034.16;5037178;28;20230;-90
2021/07/15 01:35:50;;;;;;;1.10;1.10;;;;;;;18.91;57.69;99031.94;5038023;28;20229;-89
2021/07/15 01:38:20;;;;;;;1.30;1.20;;;;;;;18.82;57.67;99020.91;5036893;28;20232;-90
2021/07/15 01:40:52;;;;;;;1.40;1.30;;;;;;;18.82;58.63;99023.63;5053447;28;20233;-86
2021/07/15 01:43:31;;;;;;;1.30;1.20;;;;;;;18.77;58.18;99020.16;5020999;28;20253;-87
2021/07/15 01:46:00;;;;;;;1.47;1.20;;;;;;;18.79;58.00;99021.50;5037242;28;20228;-87
2021/07/15 01:48:27;;;;;;;1.50;1.40;;;;;;;18.81;58.04;99010.34;5020274;28;20233;-88
2021/07/15 01:50:54;;;;;;;1.50;1.40;;;;;;;18.79;58.07;99021.50;5053491;28;20507;-87
2021/07/15 01:53:21;;;;;;;1.73;1.40;;;;;;;18.75;58.21;99009.63;5036956;28;20225;-85
2021/07/15 01:55:49;;;;;;;1.63;1.03;;;;;;;18.83;58.21;99010.88;5070255;28;20689;-88
2021/07/15 01:58:16;;;;;;;1.60;1.40;;;;;;;18.77;58.49;98998.44;5036665;28;20310;-86
2021/07/15 02:00:43;;;;;;;1.47;1.30;;;;;;;18.77;58.52;99009.31;5037204;28;20225;-88
2021/07/15 02:03:10;;;;;;;1.27;1.20;;;;;;;18.75;58.34;99004.19;5037510;28;20230;-87
2021/07/15 02:05:38;;;;;;;1.53;1.40;;;;;;;18.69;58.44;98997.19;5037163;28;20625;-88
2021/07/15 02:08:07;;;;;;;1.43;1.30;;;;;;;18.77;58.25;99004.69;5023407;28;20320;-89
2021/07/15 02:10:34;;;;;;;1.50;1.40;;;;;;;18.63;59.08;99000.22;5040699;28;20225;-89
2021/07/15 02:13:02;;;;;;;1.50;1.40;;;;;;;18.96;57.92;99004.75;5057651;28;20239;-86
2021/07/15 02:15:29;;;;;;;1.77;1.30;;;;;;;18.77;58.33;99010.13;5040835;28;20263;-88
2021/07/15 02:17:57;;;;;;;1.50;1.40;;;;;;;18.82;58.40;99010.06;5040836;28;20230;-87
2021/07/15 02:20:24;;;;;;;1.30;1.17;;;;;;;18.71;58.59;99007.75;5023838;28;20282;-89
2021/07/15 02:22:52;;;;;;;1.60;1.50;;;;;;;18.91;58.05;99008.34;5057178;28;20312;-88
2021/07/15 02:25:20;;;;;;;1.40;1.30;;;;;;;18.79;58.46;98988.94;5040449;28;20232;-90
2021/07/15 02:27:48;;;;;;;1.93;1.40;;;;;;;18.75;58.88;98997.94;5024136;28;20260;-87
2021/07/15 02:30:17;;;;;;;1.50;1.40;;;;;;;18.75;59.04;99009.63;5040009;28;20620;-91
2021/07/15 02:33:13;;;;;;;1.47;1.37;;;;;;;18.74;59.08;98999.03;5074073;28;20231;-87
2021/07/15 02:35:48;;;;;;;1.50;1.40;;;;;;;18.69;59.54;99004.50;5048760;28;20248;-87
2021/07/15 02:38:17;;;;;;;1.40;1.30;;;;;;;18.66;59.66;98994.25;5056866;28;20628;-87
2021/07/15 02:40:45;;;;;;;1.57;1.30;;;;;;;18.74;59.51;98999.03;5040099;28;20544;-88
2021/07/15 02:43:12;;;;;;;1.53;1.10;;;;;;;18.79;59.00;98998.97;5056830;28;20225;-88
2021/07/15 02:45:39;;;;;;;1.50;1.40;;;;;;;18.69;58.71;98991.75;5039892;28;20225;-91
2021/07/15 02:48:06;;;;;;;1.33;1.23;;;;;;;18.69;59.35;98983.63;5056394;28;20225;-88
2021/07/15 02:50:33;;;;;;;1.60;1.20;;;;;;;18.78;58.76;98998.19;5039677;28;20233;-87
2021/07/15 02:53:00;;;;;;;1.90;1.50;;;;;;;18.82;58.59;99006.53;5040254;28;20253;-87
2021/07/15 02:55:28;;;;;;;1.63;1.53;;;;;;;18.86;58.97;99013.00;5056513;28;20299;-88
2021/07/15 02:58:00;;;;;;;1.60;1.47;;;;;;;18.80;58.89;99006.81;5039808;28;20246;-88
2021/07/15 03:00:33;;;;;;;1.43;1.33;;;;;;;18.78;58.80;99003.59;5055989;28;20223;-88
2021/07/15 03:03:21;;;;;;;1.50;1.40;;;;;;;18.71;59.04;99008.53;5040059;28;20524;-88
2021/07/15 03:05:51;;;;;;;1.70;1.60;;;;;;;18.73;59.33;99002.84;5039869;28;20627;-89
2021/07/15 03:08:24;;;;;;;1.50;1.40;;;;;;;18.66;59.63;99007.81;5072326;28;20225;-87
2021/07/15 03:10:53;;;;;;;1.27;1.20;;;;;;;18.55;59.19;98982.69;5056165;28;20223;-89
2021/07/15 03:13:20;;;;;;;1.60;1.50;;;;;;;18.63;59.09;98997.50;5039634;28;20305;-89
2021/07/15 03:15:47;;;;;;;1.50;1.40;;;;;;;18.63;59.23;98997.50;5039679;28;20225;-89
2021/07/15 03:18:20;;;;;;;1.40;1.30;;;;;;;18.56;59.91;98988.91;5055092;28;20250;-89
2021/07/15 03:20:48;;;;;;;1.23;1.13;;;;;;;18.56;59.82;98987.03;5039472;28;20618;-88
2021/07/15 03:23:20;;;;;;;1.70;1.60;;;;;;;18.57;59.65;98990.53;5056377;28;20313;-87
2021/07/15 03:25:49;;;;;;;1.40;1.30;;;;;;;18.58;60.01;98987.53;5056264;28;20321;-88
2021/07/15 03:28:18;;;;;;;1.53;1.43;;;;;;;18.63;59.44;98997.50;5039201;28;20640;-86
2021/07/15 03:30:46;;;;;;;1.87;1.30;;;;;;;18.72;59.44;98996.59;5039564;28;20647;-87
2021/07/15 03:33:14;;;;;;;1.80;1.30;;;;;;;18.94;58.84;99014.28;5055949;28;20221;-90
2021/07/15 03:35:41;;;;;;;1.57;1.47;;;;;;;19.07;58.59;99008.97;5055726;28;20226;-88
2021/07/15 03:38:09;;;;;;;1.73;1.50;;;;;;;19.23;58.15;99007.66;5035228;28;20687;-88
2021/07/15 03:40:36;;;;;;;2.23;1.20;;;;;;;19.52;57.22;99015.75;5019419;28;20234;-87
2021/07/15 03:43:03;;;;;;;1.93;1.30;;;;;;;19.79;56.49;99015.09;5035860;28;20254;-89
2021/07/15 03:45:30;;;;;;;1.50;1.40;;;;;;;20.06;55.36;99011.72;5035398;28;20230;-88
2021/07/15 03:47:57;;;;;;;1.63;1.53;;;;;;;20.32;54.60;99025.72;5052620;28;20234;-89
2021/07/15 03:50:28;;;;;;;1.10;1.10;;;;;;;20.44;54.42;99015.97;5034975;28;20704;-89
2021/07/15 03:53:01;;;;;;;1.40;1.30;;;;;;;20.58;53.77;99019.53;5052445;28;20505;-89
2021/07/15 03:55:31;;;;;;;1.70;1.20;;;;;;;20.62;53.47;99019.75;5035279;28;20319;-88
2021/07/15 03:58:03;;;;;;;1.10;1.10;;;;;;;20.74;53.00;99021.97;5035480;28;20247;-86
2021/07/15 04:00:30;;;;;;;1.77;1.33;;;;;;;20.71;53.26;99008.97;5034947;28;20233;-86
2021/07/15 04:03:01;;;;;;;1.63;1.20;;;;;;;20.74;52.91;99011.91;5035160;28;20236;-89
2021/07/15 04:05:30;;;;;;;1.90;1.40;;;;;;;21.05;52.24;99007.47;5035203;28;20305;-87
2021/07/15 04:07:58;;;;;;;1.47;1.30;;;;;;;21.88;50.15;99006.22;5035497;28;20259;-88
2021/07/15 04:10:29;;;;;;;1.50;1.20;;;;;;;22.21;48.78;99012.28;5051036;28;20231;-86
2021/07/15 04:12:58;;;;;;;1.40;1.30;;;;;;;22.43;48.36;99021.59;5051881;28;20658;-89
2021/07/15 04:15:51;;;;;;;1.83;1.20;;;;;;;24.00;44.58;99026.97;5034884;28;20233;-87
2021/07/15 04:18:19;;;;;;;1.37;1.10;;;;;;;24.70;43.05;99020.28;5019734;28;20294;-87
2021/07/15 04:20:46;;;;;;;1.20;1.20;;;;;;;24.55;42.47;99029.81;5034724;28;20484;-89
2021/07/15 04:23:13;;;;;;;2.47;1.20;;;;;;;24.04;43.53;99043.53;5035207;28;20252;-89
2021/07/15 04:25:43;;;;;;;2.43;1.30;;;;;;;23.63;44.65;99038.50;5051193;28;20229;-87
2021/07/15 04:28:10;;;;;;;1.53;1.20;;;;;;;23.26;45.80;99040.66;5034554;28;20300;-87
2021/07/15 04:30:37;;;;;;;1.20;1.10;;;;;;;22.70;46.59;99007.81;5034484;28;20283;-85
2021/07/15 04:33:06;;;;;;;1.83;1.38;;;;;;;22.18;47.94;99009.38;5034940;28;20251;-86
2021/07/15 04:35:34;;;;;;;1.90;1.43;;;;;;;22.07;48.47;99025.19;5034725;28;20230;-87
2021/07/15 04:38:02;;;;;;;1.77;1.30;;;;;;;21.84;49.17;99023.50;5051735;28;20235;-88
2021/07/15 04:40:29;;;;;;;1.60;1.30;;;;;;;21.63;49.57;99023.19;5034393;28;20310;-85
2021/07/15 04:43:00;;;;;;;1.50;1.40;;;;;;;21.65;50.06;99048.19;5034648;28;20623;-86
2021/07/15 04:45:28;;;;;;;3.60;1.57;;;;;;;21.52;50.42;99036.22;5051185;28;20654;-87
2021/07/15 04:47:56;;;;;;;1.50;1.10;;;;;;;21.51;50.69;99040.06;5034584;28;20236;-87
2021/07/15 04:50:26;;;;;;;2.23;1.50;;;;;;;21.50;50.36;99026.75;5034152;28;20235;-88
2021/07/15 04:52:58;;;;;;;1.20;1.10;;;;;;;21.44;50.04;99023.31;5034414;28;20240;-88
2021/07/15 04:55:25;;;;;;;1.27;1.17;;;;;;;21.44;49.82;99036.13;5034965;28;20278;-89
2021/07/15 04:57:53;;;;;;;2.43;1.30;;;;;;;21.36;50.08;99034.13;5051142;28;20284;-88
2021/07/15 05:00:22;;;;;;;1.60;1.17;;;;;;;21.25;50.39;99025.34;5067316;28;20276;-88
2021/07/15 05:02:55;;;;;;;1.10;1.10;;;;;;;21.17;50.58;99041.59;5034337;28;20257;-88
2021/07/15 05:05:21;;;;;;;1.73;1.43;;;;;;;21.09;51.24;99048.53;5034373;28;20712;-88
2021/07/15 05:07:48;;;;;;;1.50;1.40;;;;;;;20.91;51.81;99025.72;5034642;28;20299;-88
2021/07/15 05:10:15;;;;;;;1.40;1.30;;;;;;;21.22;51.30;99025.16;5033947;28;20232;-86
2021/07/15 05:12:47;;;;;;;1.40;1.30;;;;;;;21.61;49.90;99030.84;5034642;28;20233;-87
2021/07/15 05:15:13;;;;;;;1.33;1.23;;;;;;;21.75;49.61;99023.44;5034633;28;20284;-88
2021/07/15 05:17:40;;;;;;;1.67;1.20;;;;;;;22.12;48.78;99033.25;5034359;28;20228;-88
2021/07/15 05:20:08;;;;;;;1.93;1.40;;;;;;;22.36;47.77;99016.56;5033679;28;20243;-88
2021/07/15 05:22:36;;;;;;;1.10;1.00;;;;;;;22.72;46.41;99052.00;5050815;28;20230;-87
2021/07/15 05:25:08;;;;;;;1.53;1.30;;;;;;;22.81;46.67;99033.72;5034356;28;20230;-88
2021/07/15 05:27:35;;;;;;;1.30;1.20;;;;;;;22.87;46.09;99045.31;5033966;28;20332;-88
2021/07/15 05:30:05;;;;;;;1.30;1.20;;;;;;;22.64;46.57;99041.78;5033677;28;20240;-87
2021/07/15 05:32:32;;;;;;;1.47;0.90;;;;;;;22.99;45.16;99038.16;5050960;28;20224;-87
2021/07/15 05:34:59;;;;;;;1.10;1.00;;;;;;;23.09;45.08;99037.06;5018034;28;20235;-87
2021/07/15 05:37:26;;;;;;;1.63;1.30;;;;;;;23.09;44.93;99050.72;5033780;28;20231;-86
2021/07/15 05:39:53;;;;;;;1.00;0.90;;;;;;;23.08;44.60;99043.63;5034088;28;20229;-86
2021/07/15 05:42:19;;;;;;;1.95;1.20;;;;;;;23.13;44.27;99051.69;5035431;28;20295;-86
2021/07/15 05:44:46;;;;;;;2.35;1.10;;;;;;;22.80;45.44;99051.22;5054786;28;20234;-87
2021/07/15 05:47:13;;;;;;;1.27;1.17;;;;;;;22.81;45.63;99041.91;5043624;28;20634;-88
2021/07/15 05:49:40;;;;;;;1.20;1.10;;;;;;;22.83;45.06;99047.84;5034610;28;20258;-87
2021/07/15 05:52:11;;;;;;;1.40;1.00;;;;;;;22.85;45.38;99044.81;5040687;28;20227;-86
2021/07/15 05:54:39;;;;;;;1.30;1.15;;;;;;;23.11;45.32;99057.47;5058446;28;20320;-86
2021/07/15 05:57:06;;;;;;;1.73;1.25;;;;;;;23.30;45.93;99059.94;5041136;28;20587;-86
2021/07/15 05:59:33;;;;;;;2.03;1.30;;;;;;;23.46;44.43;99054.88;5038285;28;20524;-87
2021/07/15 06:02:00;;;;;;;1.00;1.00;;;;;;;23.71;44.15;99059.59;5040483;28;20287;-86
2021/07/15 06:04:28;;;;;;;0.90;0.90;;;;;;;23.72;44.20;99047.53;5040629;28;20247;-86
2021/07/15 06:06:55;;;;;;;1.27;1.08;;;;;;;23.90;42.97;99054.63;5057229;28;20245;-87
2021/07/15 06:09:22;;;;;;;1.05;1.00;;;;;;;23.95;42.66;99042.72;5040736;28;20233;-86
2021/07/15 06:11:49;;;;;;;1.55;0.95;;;;;;;24.06;42.65;99044.81;5040257;28;20313;-86
2021/07/15 06:14:17;;;;;;;1.10;1.00;;;;;;;24.15;41.75;99033.88;5040197;28;20223;-85
2021/07/15 06:16:44;;;;;;;2.15;1.10;;;;;;;24.32;41.17;99049.50;5040622;28;20258;-85
2021/07/15 06:19:11;;;;;;;1.58;1.00;;;;;;;24.37;41.17;99057.53;5040461;28;20225;-86
2021/07/15 06:21:37;;;;;;;2.05;1.02;;;;;;;24.42;40.84;99054.63;5056630;28;20295;-88
2021/07/15 06:24:05;;;;;;;1.30;1.13;;;;;;;24.48;41.41;99061.56;5039502;28;20247;-86
2021/07/15 06:26:31;;;;;;;1.80;1.02;;;;;;;24.52;40.12;99065.25;5023386;28;20637;-87
2021/07/15 06:28:58;;;;;;;1.77;1.05;;;;;;;24.62;40.32;99056.72;5023436;28;20225;-86
2021/07/15 06:31:26;;;;;;;3.13;1.13;;;;;;;24.69;40.92;99046.03;5056239;28;20226;-87
2021/07/15 06:33:53;;;;;;;1.98;1.10;;;;;;;24.84;40.29;99055.69;5040070;28;20569;-87
2021/07/15 06:36:20;;;;;;;1.52;1.00;;;;;;;24.97;39.62;99054.69;5039375;28;20253;-86
2021/07/15 06:38:47;;;;;;;2.08;1.10;;;;;;;25.04;39.87;99043.22;5055878;28;20258;-87
2021/07/15 06:41:16;;;;;;;1.75;0.93;;;;;;;24.98;39.04;99040.66;5039436;28;20297;-86
2021/07/15 06:43:43;;;;;;;1.75;0.90;;;;;;;24.94;39.50;99033.44;5023809;28;20309;-86
2021/07/15 06:46:11;;;;;;;1.00;1.00;;;;;;;25.23;39.47;99047.19;5039025;28;20241;-85
2021/07/15 06:48:39;;;;;;;1.05;1.05;;;;;;;25.24;38.84;99048.00;5055853;28;20253;-86
2021/07/15 06:51:06;;;;;;;1.13;1.02;;;;;;;25.25;38.98;99042.16;5054818;28;20241;-88
2021/07/15 06:53:33;;;;;;;3.05;1.20;;;;;;;25.18;41.46;99041.88;5039222;28;20217;-86
2021/07/15 06:56:00;;;;;;;1.30;1.20;;;;;;;25.20;41.78;99055.25;5037436;28;20221;-84
2021/07/15 06:58:28;;;;;;;1.95;1.25;;;;;;;24.25;43.59;99063.69;5055698;28;20700;-86
2021/07/15 07:00:56;;;;;;;2.10;1.17;;;;;;;24.75;42.91;99052.97;5072178;28;20238;-85
2021/07/15 07:03:24;;;;;;;2.15;1.20;;;;;;;24.93;42.23;99051.81;5039280;28;20310;-86
2021/07/15 07:05:52;;;;;;;1.02;1.02;;;;;;;24.93;40.63;99038.09;5035545;28;20218;-87
2021/07/15 07:08:19;;;;;;;1.02;1.00;;;;;;;25.04;40.58;99043.22;5047901;28;20244;-84
2021/07/15 07:10:46;;;;;;;1.23;1.20;;;;;;;25.17;40.00;99044.94;5035605;28;20228;-83
2021/07/15 07:13:13;;;;;;;1.00;1.00;;;;;;;25.20;40.24;99028.63;5071933;28;20312;-83
2021/07/15 07:15:40;;;;;;;1.50;1.00;;;;;;;25.51;40.16;99050.25;5049442;28;20235;-84
2021/07/15 07:18:07;;;;;;;1.23;1.20;;;;;;;25.68;39.64;99036.44;5034726;28;20238;-83
2021/07/15 07:20:34;;;;;;;1.83;1.30;;;;;;;25.99;39.81;99046.25;5035323;28;20241;-83
2021/07/15 07:23:02;;;;;;;1.42;1.10;;;;;;;25.95;38.85;99034.31;5045805;28;20233;-83
2021/07/15 07:25:29;;;;;;;1.45;1.20;;;;;;;26.09;38.60;99015.63;5038276;28;20248;-83
2021/07/15 07:27:56;;;;;;;3.53;1.15;;;;;;;26.24;39.03;99024.09;5054924;28;20236;-83
2021/07/15 07:30:23;;;;;;;2.28;1.17;;;;;;;26.19;39.41;99016.03;5037543;28;20230;-83
2021/07/15 07:32:50;;;;;;;1.30;1.20;;;;;;;26.58;37.49;99022.13;5053981;28;20234;-83
2021/07/15 07:35:18;;;;;;;1.10;1.00;;;;;;;26.42;38.16;99012.91;5054506;28;20231;-84
2021/07/15 07:37:45;;;;;;;2.13;1.20;;;;;;;26.24;37.00;99018.59;5055353;28;20238;-83
2021/07/15 07:40:13;;;;;;;1.40;1.00;;;;;;;25.70;38.71;99004.00;5054364;28;20304;-84
2021/07/15 07:42:41;;;;;;;1.85;1.15;;;;;;;25.95;38.23;99023.34;5071315;28;20631;-83
2021/07/15 07:45:08;;;;;;;1.20;1.10;;;;;;;26.05;37.97;99020.19;5071282;28;20647;-84
2021/07/15 07:47:36;;;;;;;1.48;1.15;;;;;;;25.94;37.72;99017.06;5037875;28;20314;-83
2021/07/15 07:50:05;;;;;;;1.30;1.20;;;;;;;26.08;37.67;99009.34;5053918;28;20233;-82
2021/07/15 07:52:32;;;;;;;1.10;1.10;;;;;;;25.58;38.45;99000.38;5054559;28;20231;-83
2021/07/15 07:54:59;;;;;;;2.25;1.27;;;;;;;25.60;38.13;99003.59;5071183;28;20231;-84
2021/07/15 07:57:26;;;;;;;1.55;1.20;;;;;;;25.55;38.79;99012.81;5053920;28;20252;-79
2021/07/15 07:59:53;;;;;;;1.40;1.30;;;;;;;25.86;37.63;99004.19;5037700;28;20239;-81
2021/07/15 08:02:20;;;;;;;1.05;1.05;;;;;;;26.14;37.06;99012.69;5037389;28;20241;-81
2021/07/15 08:04:47;;;;;;;1.45;1.20;;;;;;;26.25;37.18;99003.72;5037175;28;20638;-83
2021/07/15 08:07:14;;;;;;;1.27;1.17;;;;;;;26.53;36.18;99006.66;5043355;28;20303;-83
2021/07/15 08:09:44;;;;;;;1.45;1.20;;;;;;;26.77;36.38;99002.38;5037785;28;20359;-83
2021/07/15 08:12:12;;;;;;;1.65;0.98;;;;;;;26.93;36.32;98997.81;5053622;28;20296;-82
2021/07/15 08:14:39;;;;;;;1.30;1.10;;;;;;;26.94;36.26;99003.00;5056258;28;20278;-83
2021/07/15 08:17:06;;;;;;;1.35;1.20;;;;;;;27.15;35.60;99005.63;5054067;28;20229;-82
2021/07/15 08:19:34;;;;;;;1.23;1.13;;;;;;;27.31;35.56;99012.03;5037721;28;20237;-82
2021/07/15 08:22:01;;;;;;;1.67;1.30;;;;;;;27.38;34.84;99020.53;5037003;28;20322;-81
2021/07/15 08:24:29;;;;;;;1.13;1.13;;;;;;;27.30;35.12;99012.38;5017246;28;20229;-83
2021/07/15 08:26:56;;;;;;;1.30;1.20;;;;;;;27.37;34.79;99004.34;5032404;28;20240;-83
2021/07/15 08:29:24;;;;;;;1.20;1.10;;;;;;;27.44;34.75;99012.81;5032321;28;20579;-81
2021/07/15 08:31:50;;;;;;;2.17;1.38;;;;;;;26.90;35.36;98996.56;5032746;28;20240;-81
2021/07/15 08:48:19;;;;;;;1.40;1.30;;;;;;;28.86;32.26;99010.28;5127916;27;20562;-79
2021/07/15 08:50:50;;;;;;;2.38;1.70;;;;;;;29.50;30.77;98994.47;5051064;28;20316;-80
2021/07/15 08:53:18;;;;;;;1.33;1.10;;;;;;;29.90;29.77;99016.31;5072360;28;20232;-79
2021/07/15 08:58:47;;;;;;;2.15;1.25;;;;;;;28.87;32.59;98989.84;5001778;28;20317;-80
2021/07/15 09:01:14;;;;;;;3.17;1.00;;;;;;;28.84;33.37;99007.06;5051612;28;20228;-81
2021/07/15 09:03:41;;;;;;;2.40;1.30;;;;;;;28.36;33.12;99021.13;5038024;28;20235;-80
2021/07/15 09:06:08;;;;;;;1.30;1.20;;;;;;;28.06;34.35;99017.06;5067599;28;20220;-79
2021/07/15 09:08:35;;;;;;;1.80;1.20;;;;;;;27.69;36.11;99013.63;5051918;28;20358;-80
2021/07/15 09:11:02;;;;;;;1.30;1.20;;;;;;;27.83;35.16;99012.09;5068129;28;20567;-80
2021/07/15 09:13:29;;;;;;;1.27;1.27;;;;;;;26.99;36.04;98997.28;5035301;28;20254;-80
2021/07/15 09:15:57;;;;;;;1.42;1.30;;;;;;;26.79;36.27;99019.31;5085546;28;20627;-79
2021/07/15 09:18:24;;;;;;;1.35;1.25;;;;;;;26.94;35.51;99022.22;5076474;28;20235;-78
2021/07/15 09:20:51;;;;;;;1.20;1.20;;;;;;;26.81;35.42;99023.31;5047225;28;20602;-79
2021/07/15 09:23:18;;;;;;;2.35;1.30;;;;;;;27.11;35.93;99019.25;5054018;28;20369;-79
2021/07/15 09:25:46;;;;;;;1.52;1.42;;;;;;;27.28;35.62;99026.50;5088025;28;20255;-81
2021/07/15 09:28:15;;;;;;;2.08;1.27;;;;;;;27.61;35.76;99025.56;5088686;28;20533;-80
2021/07/15 09:30:42;;;;;;;2.75;1.38;;;;;;;27.62;35.08;99029.94;5104834;28;20226;-79
2021/07/15 09:33:16;;;;;;;1.42;1.27;;;;;;;27.58;35.24;99025.09;5087564;28;20313;-81
2021/07/15 09:35:49;;;;;;;1.10;1.10;;;;;;;26.82;37.13;99013.16;5087561;28;20227;-80
2021/07/15 09:38:24;;;;;;;2.15;1.25;;;;;;;27.29;34.83;99022.59;5070367;28;20223;-79
2021/07/15 09:41:01;;;;;;;1.83;1.23;;;;;;;27.55;34.08;99016.75;5087233;28;20241;-78
2021/07/15 09:43:35;;;;;;;1.27;1.20;;;;;;;27.15;35.29;99014.69;5070886;28;20634;-80
2021/07/15 09:46:11;;;;;;;1.85;1.00;;;;;;;27.34;34.21;99027.84;5060892;28;20254;-80
2021/07/15 09:48:40;;;;;;;1.02;1.02;;;;;;;27.55;34.43;99023.06;5057046;28;20231;-79
2021/07/15 09:51:08;;;;;;;1.75;1.30;;;;;;;27.56;33.59;99018.34;5054364;28;20240;-81
2021/07/15 09:53:36;;;;;;;2.78;1.20;;;;;;;27.87;34.52;99035.03;5073730;28;20221;-81
2021/07/15 09:56:08;;;;;;;1.42;1.20;;;;;;;27.88;33.63;99017.38;5056820;28;20221;-78
2021/07/15 09:58:36;;;;;;;1.45;1.35;;;;;;;27.91;33.32;99015.84;5069558;28;20227;-80
2021/07/15 10:01:06;;;;;;;1.65;1.30;;;;;;;28.21;33.26;99008.09;5095175;28;20228;-78
2021/07/15 10:03:40;;;;;;;1.05;1.05;;;;;;;28.72;32.03;99007.16;5093774;28;20630;-79
2021/07/15 10:06:08;;;;;;;1.35;1.20;;;;;;;29.59;31.05;99006.91;5093484;28;20215;-78
2021/07/15 10:08:37;;;;;;;1.30;1.20;;;;;;;29.72;31.16;98986.31;5093779;28;20247;-78
2021/07/15 10:11:25;;;;;;;1.55;1.40;;;;;;;29.79;30.25;98996.72;5060367;28;20235;-79
2021/07/15 10:14:09;;;;;;;1.50;1.40;;;;;;;29.81;29.75;99008.22;5095077;28;20649;-79
2021/07/15 10:16:47;;;;;;;1.08;1.08;;;;;;;29.14;31.57;99006.63;5054888;28;20236;-79
2021/07/15 10:19:19;;;;;;;1.23;1.13;;;;;;;28.53;32.49;99006.22;5055123;28;20233;-79
2021/07/15 10:22:14;;;;;;;1.25;1.20;;;;;;;28.57;32.47;99004.34;5073202;28;20252;-78
2021/07/15 10:24:41;;;;;;;1.63;1.30;;;;;;;28.57;33.08;98999.63;5073210;28;20299;-78
2021/07/15 10:27:12;;;;;;;1.52;1.42;;;;;;;28.14;33.03;99003.19;5074457;28;20248;-78
2021/07/15 10:29:40;;;;;;;2.13;1.38;;;;;;;28.33;32.15;99006.09;5057300;28;20244;-80
2021/07/15 10:32:09;;;;;;;1.40;1.30;;;;;;;28.35;32.14;99006.53;5055557;28;20328;-80
2021/07/15 10:34:37;;;;;;;1.55;1.45;;;;;;;28.68;31.10;98977.88;5056693;28;20262;-80
2021/07/15 10:37:05;;;;;;;1.38;1.27;;;;;;;29.09;31.15;98988.38;5072723;28;20563;-80
2021/07/15 10:39:32;;;;;;;1.30;1.20;;;;;;;28.88;32.30;98994.16;5056072;28;20221;-80
2021/07/15 10:42:00;;;;;;;1.98;1.23;;;;;;;28.68;31.01;98992.47;5056125;28;20267;-79
2021/07/15 10:44:27;;;;;;;1.30;1.20;;;;;;;28.80;30.94;98999.88;5056404;28;20263;-79
2021/07/15 10:46:56;;;;;;;1.30;1.20;;;;;;;28.51;32.61;99001.03;5041404;28;20245;-80
2021/07/15 10:49:24;;;;;;;1.52;1.42;;;;;;;28.88;31.51;99007.94;5020002;28;20259;-79
2021/07/15 10:51:53;;;;;;;1.38;1.33;;;;;;;28.87;31.72;99011.88;5019542;28;20328;-79
2021/07/15 10:54:21;;;;;;;2.30;1.15;;;;;;;28.95;31.06;98992.75;5065390;28;20237;-79
2021/07/15 10:56:49;;;;;;;1.25;1.15;;;;;;;29.47;29.96;98998.78;5055927;28;20240;-80
2021/07/15 10:59:35;;;;;;;1.30;1.20;;;;;;;29.82;30.42;98995.97;5073346;28;20618;-80
2021/07/15 11:02:03;;;;;;;1.40;1.23;;;;;;;30.19;29.02;99001.88;5092459;28;20247;-80
2021/07/15 11:04:41;;;;;;;1.30;1.13;;;;;;;30.45;29.43;99007.59;5059742;28;20630;-80
2021/07/15 11:07:34;;;;;;;1.98;1.30;;;;;;;30.35;29.52;99007.34;5059344;28;20246;-80
2021/07/15 11:10:24;;;;;;;1.40;1.30;;;;;;;30.42;29.12;98999.19;5090909;28;20368;-80
2021/07/15 11:13:03;;;;;;;1.98;1.33;;;;;;;30.48;28.98;98994.97;5092786;28;20228;-80
2021/07/15 11:15:55;;;;;;;1.50;1.40;;;;;;;30.67;28.57;98994.94;5063368;28;20649;-79
2021/07/15 11:21:25;;;;;;;1.40;1.30;;;;;;;30.28;30.20;98990.63;5069368;28;20257;-79
2021/07/15 11:24:14;;;;;;;1.35;1.13;;;;;;;30.43;30.90;98976.72;5071948;28;20232;-79
2021/07/15 11:26:42;;;;;;;2.08;1.30;;;;;;;30.39;29.87;98981.38;5072793;28;20526;-80
2021/07/15 11:29:11;;;;;;;1.48;1.25;;;;;;;30.24;29.57;98970.41;5038946;28;20233;-79
2021/07/15 11:31:50;;;;;;;2.80;1.40;;;;;;;30.90;28.70;98981.09;5055178;28;20534;-80
2021/07/15 11:34:36;;;;;;;1.60;1.20;;;;;;;31.10;29.05;98981.88;5071608;28;20239;-79
2021/07/15 11:37:22;;;;;;;2.25;1.40;;;;;;;31.09;28.73;98983.81;5055327;28;20224;-82
2021/07/15 11:39:49;;;;;;;2.50;1.20;;;;;;;30.99;28.17;98978.88;5073129;28;20232;-83
2021/07/15 11:42:19;;;;;;;1.25;1.25;;;;;;;30.42;27.59;98982.63;5053520;28;20236;-80
2021/07/15 11:45:12;;;;;;;1.30;1.20;;;;;;;29.51;30.96;98996.09;5068730;28;20500;-81
2021/07/15 11:47:50;;;;;;;2.70;1.50;;;;;;;30.19;30.43;98988.88;5048294;28;20225;-81
2021/07/15 11:50:26;;;;;;;2.08;1.40;;;;;;;30.54;29.86;98991.56;5047979;28;20286;-80
2021/07/15 11:53:21;;;;;;;1.83;1.30;;;;;;;31.24;28.13;98991.19;5049239;28;20235;-81
2021/07/15 11:55:53;;;;;;;1.73;1.20;;;;;;;31.92;26.99;99002.06;5066910;28;20575;-82
2021/07/15 11:58:38;;;;;;;3.05;1.25;;;;;;;32.76;25.19;98992.34;5063804;28;20529;-81
2021/07/15 12:01:31;;;;;;;1.20;1.10;;;;;;;32.87;26.05;98990.47;5080294;28;20647;-83
2021/07/15 12:04:02;;;;;;;1.50;1.40;;;;;;;33.03;25.06;98995.75;5066496;28;20312;-83
2021/07/15 12:06:32;;;;;;;1.48;1.38;;;;;;;33.21;25.06;98990.38;5067239;28;20229;-80
2021/07/15 12:09:12;;;;;;;1.52;1.30;;;;;;;33.36;24.75;99003.97;5034895;28;20317;-82